createdAt,value
2023-04-16T00:00:47.958Z,3.82
2023-04-16T00:01:47.953Z,3.82
2023-04-16T00:02:48.072Z,3.82
2023-04-16T00:03:48.336Z,3.83
2023-04-16T00:04:47.912Z,3.82
2023-04-16T00:05:47.864Z,3.82
2023-04-16T00:06:47.828Z,3.82
2023-04-16T00:07:47.835Z,3.83
2023-04-16T00:08:47.808Z,3.83
2023-04-16T00:09:47.825Z,3.83
2023-04-16T00:10:47.812Z,3.83
2023-04-16T00:11:47.804Z,3.83
2023-04-16T00:12:47.798Z,3.83
2023-04-16T00:13:47.789Z,3.83
2023-04-16T00:14:47.770Z,3.83
2023-04-16T00:15:47.751Z,3.84
2023-04-16T00:16:47.842Z,3.83
2023-04-16T00:17:47.821Z,3.82
2023-04-16T00:18:47.766Z,3.81
2023-04-16T00:19:47.724Z,3.80
2023-04-16T00:20:47.689Z,3.79
2023-04-16T00:21:47.694Z,3.78
2023-04-16T00:22:47.681Z,3.78
2023-04-16T00:23:47.659Z,3.79
2023-04-16T00:24:47.654Z,3.79
2023-04-16T00:25:47.666Z,3.80
2023-04-16T00:26:47.680Z,3.80
2023-04-16T00:27:47.648Z,3.81
2023-04-16T00:28:47.625Z,3.82
2023-04-16T00:29:47.597Z,3.83
2023-04-16T00:30:47.640Z,3.83
2023-04-16T00:31:47.600Z,3.82
2023-04-16T00:32:47.677Z,3.82
2023-04-16T00:33:47.598Z,3.81
2023-04-16T00:34:47.556Z,3.80
2023-04-16T00:35:47.535Z,3.79
2023-04-16T00:36:47.545Z,3.79
2023-04-16T00:37:47.516Z,3.79
2023-04-16T00:38:47.550Z,3.79
2023-04-16T00:39:47.512Z,3.79
2023-04-16T00:40:47.512Z,3.80
2023-04-16T00:41:47.516Z,3.81
2023-04-16T00:42:47.478Z,3.81
2023-04-16T00:43:47.478Z,3.82
2023-04-16T00:44:47.484Z,3.82
2023-04-16T00:45:47.503Z,3.82
2023-04-16T00:46:47.599Z,3.82
2023-04-16T00:47:47.497Z,3.83
2023-04-16T00:48:47.424Z,3.83
2023-04-16T00:49:47.447Z,3.84
2023-04-16T00:50:47.394Z,3.83
2023-04-16T00:51:47.409Z,3.83
2023-04-16T00:52:47.375Z,3.83
2023-04-16T00:53:47.372Z,3.83
2023-04-16T00:54:47.405Z,3.84
2023-04-16T00:55:47.390Z,3.84
2023-04-16T00:56:47.440Z,3.85
2023-04-16T00:57:47.365Z,3.85
2023-04-16T00:58:47.309Z,3.86
2023-04-16T00:59:47.313Z,3.86
2023-04-16T01:02:04.967Z,5.10
2023-04-16T01:03:06.162Z,4.61
2023-04-16T01:04:05.928Z,4.29
2023-04-16T01:05:05.846Z,4.11
2023-04-16T01:06:05.836Z,4.01
2023-04-16T01:07:05.871Z,3.95
2023-04-16T01:08:05.821Z,3.91
2023-04-16T01:09:05.825Z,3.89
2023-04-16T01:10:05.799Z,3.87
2023-04-16T01:11:05.788Z,3.86
2023-04-16T01:12:05.794Z,3.86
2023-04-16T01:13:05.769Z,3.85
2023-04-16T01:14:05.788Z,3.85
2023-04-16T01:15:05.761Z,3.85
2023-04-16T01:16:05.764Z,3.85
2023-04-16T01:17:05.731Z,3.86
2023-04-16T01:18:05.779Z,3.86
2023-04-16T01:19:05.743Z,3.86
2023-04-16T01:20:05.725Z,3.86
2023-04-16T01:21:05.697Z,3.86
2023-04-16T01:22:05.705Z,3.86
2023-04-16T01:23:05.693Z,3.86
2023-04-16T01:24:05.676Z,3.85
2023-04-16T01:25:05.656Z,3.84
2023-04-16T01:26:05.708Z,3.83
2023-04-16T01:27:05.632Z,3.83
2023-04-16T01:28:05.638Z,3.82
2023-04-16T01:29:05.648Z,3.82
2023-04-16T01:30:05.619Z,3.82
2023-04-16T01:31:05.666Z,3.82
2023-04-16T01:32:05.580Z,3.82
2023-04-16T01:33:05.587Z,3.82
2023-04-16T01:34:05.611Z,3.82
2023-04-16T01:35:05.583Z,3.83
2023-04-16T01:36:05.541Z,3.83
2023-04-16T01:37:05.550Z,3.83
2023-04-16T01:38:05.520Z,3.83
2023-04-16T01:39:05.542Z,3.83
2023-04-16T01:40:05.547Z,3.83
2023-04-16T01:41:05.551Z,3.82
2023-04-16T01:42:05.492Z,3.82
2023-04-16T01:43:05.475Z,3.82
2023-04-16T01:44:05.468Z,3.83
2023-04-16T01:45:05.452Z,3.83
2023-04-16T01:46:05.461Z,3.84
2023-04-16T01:47:05.503Z,3.84
2023-04-16T01:48:05.443Z,3.84
2023-04-16T01:49:05.440Z,3.84
2023-04-16T01:50:05.410Z,3.84
2023-04-16T01:51:05.408Z,3.85
2023-04-16T01:52:05.396Z,3.85
2023-04-16T01:53:05.388Z,3.86
2023-04-16T01:54:05.379Z,3.86
2023-04-16T01:55:05.391Z,3.86
2023-04-16T01:56:05.387Z,3.86
2023-04-16T01:57:05.373Z,3.86
2023-04-16T01:58:05.368Z,3.86
2023-04-16T01:59:05.328Z,3.86
2023-04-16T02:00:05.336Z,3.87
2023-04-16T02:01:05.348Z,3.87
2023-04-16T02:02:05.335Z,3.88
2023-04-16T02:03:05.411Z,3.88
2023-04-16T02:04:05.378Z,3.89
2023-04-16T02:05:05.261Z,3.89
2023-04-16T02:06:05.270Z,3.91
2023-04-16T02:07:05.264Z,3.92
2023-04-16T02:08:05.235Z,3.92
2023-04-16T02:09:05.222Z,3.92
2023-04-16T02:10:05.327Z,3.92
2023-04-16T02:11:05.194Z,3.93
2023-04-16T02:12:05.219Z,3.93
2023-04-16T02:13:05.199Z,3.93
2023-04-16T02:14:05.170Z,3.94
2023-04-16T02:15:05.169Z,3.94
2023-04-16T02:16:05.171Z,3.95
2023-04-16T02:17:05.177Z,3.95
2023-04-16T02:18:05.174Z,3.95
2023-04-16T02:19:05.114Z,3.95
2023-04-16T02:20:05.105Z,3.95
2023-04-16T02:21:05.199Z,3.95
2023-04-16T02:22:05.123Z,3.96
2023-04-16T02:23:05.080Z,3.96
2023-04-16T02:24:05.061Z,3.97
2023-04-16T02:25:05.070Z,3.97
2023-04-16T02:26:05.068Z,3.98
2023-04-16T02:27:05.407Z,3.98
2023-04-16T02:28:05.030Z,3.98
2023-04-16T02:29:05.045Z,3.98
2023-04-16T02:30:05.031Z,3.98
2023-04-16T02:31:05.023Z,3.98
2023-04-16T02:32:05.065Z,3.99
2023-04-16T02:33:04.992Z,3.99
2023-04-16T02:34:04.963Z,3.99
2023-04-16T02:35:04.962Z,3.99
2023-04-16T02:36:04.968Z,3.99
2023-04-16T02:37:04.948Z,3.99
2023-04-16T02:38:04.938Z,3.99
2023-04-16T02:39:04.976Z,3.99
2023-04-16T02:40:04.912Z,3.99
2023-04-16T02:41:04.926Z,3.99
2023-04-16T02:42:04.912Z,3.99
2023-04-16T02:43:04.906Z,3.98
2023-04-16T02:44:04.875Z,3.98
2023-04-16T02:45:04.886Z,3.99
2023-04-16T02:46:04.900Z,3.99
2023-04-16T02:47:04.840Z,4.00
2023-04-16T02:48:04.839Z,4.00
2023-04-16T02:49:04.842Z,4.01
2023-04-16T02:50:04.836Z,4.02
2023-04-16T02:51:04.809Z,4.03
2023-04-16T02:52:04.792Z,4.03
2023-04-16T02:53:04.787Z,4.04
2023-04-16T02:54:04.796Z,4.04
2023-04-16T02:55:04.782Z,4.04
2023-04-16T02:56:04.744Z,4.04
2023-04-16T02:57:04.837Z,4.04
2023-04-16T02:58:04.738Z,4.04
2023-04-16T02:59:04.743Z,4.05
2023-04-16T03:00:04.710Z,4.05
2023-04-16T03:01:04.838Z,4.06
2023-04-16T03:02:04.727Z,4.06
2023-04-16T03:03:04.709Z,4.07
2023-04-16T03:04:04.694Z,4.08
2023-04-16T03:05:04.663Z,4.08
2023-04-16T03:06:04.648Z,4.08
2023-04-16T03:07:04.707Z,4.08
2023-04-16T03:08:04.630Z,4.09
2023-04-16T03:09:04.622Z,4.10
2023-04-16T03:10:04.607Z,4.11
2023-04-16T03:11:04.616Z,4.12
2023-04-16T03:12:04.609Z,4.13
2023-04-16T03:13:04.591Z,4.13
2023-04-16T03:14:04.624Z,4.14
2023-04-16T03:15:04.600Z,4.15
2023-04-16T03:16:04.585Z,4.15
2023-04-16T03:17:04.544Z,4.16
2023-04-16T03:18:04.788Z,4.17
2023-04-16T03:19:04.536Z,4.18
2023-04-16T03:20:04.524Z,4.19
2023-04-16T03:21:04.518Z,4.19
2023-04-16T03:22:04.500Z,4.20
2023-04-16T03:23:04.498Z,4.22
2023-04-16T03:24:04.498Z,4.23
2023-04-16T03:25:04.480Z,4.24
2023-04-16T03:26:04.484Z,4.26
2023-04-16T03:27:04.458Z,4.27
2023-04-16T03:28:04.442Z,4.28
2023-04-16T03:29:04.427Z,4.30
2023-04-16T03:30:04.437Z,4.31
2023-04-16T03:31:04.655Z,4.33
2023-04-16T03:32:04.431Z,4.33
2023-04-16T03:33:04.396Z,4.34
2023-04-16T03:34:04.402Z,4.35
2023-04-16T03:35:04.379Z,4.35
2023-04-16T03:36:04.387Z,4.35
2023-04-16T03:37:04.408Z,4.36
2023-04-16T03:38:04.352Z,4.37
2023-04-16T03:39:04.346Z,4.39
2023-04-16T03:40:04.382Z,4.40
2023-04-16T03:41:04.316Z,4.43
2023-04-16T03:42:04.315Z,4.45
2023-04-16T03:43:04.330Z,4.48
2023-04-16T03:44:04.289Z,4.51
2023-04-16T03:45:04.296Z,4.54
2023-04-16T03:46:04.357Z,4.56
2023-04-16T03:47:04.251Z,4.57
2023-04-16T03:48:04.249Z,4.59
2023-04-16T03:49:04.333Z,4.61
2023-04-16T03:50:04.242Z,4.62
2023-04-16T03:51:04.209Z,4.63
2023-04-16T03:52:04.229Z,4.64
2023-04-16T03:53:04.301Z,4.65
2023-04-16T03:54:04.190Z,4.65
2023-04-16T03:55:04.184Z,4.66
2023-04-16T03:56:04.243Z,4.67
2023-04-16T03:57:04.168Z,4.68
2023-04-16T03:58:04.141Z,4.69
2023-04-16T03:59:04.149Z,4.69
2023-04-16T04:00:04.107Z,4.70
2023-04-16T04:01:04.135Z,4.71
2023-04-16T04:02:04.247Z,4.71
2023-04-16T04:03:04.385Z,4.71
2023-04-16T04:04:04.360Z,4.72
2023-04-16T04:05:04.202Z,4.72
2023-04-16T04:06:04.104Z,4.72
2023-04-16T04:07:04.215Z,4.72
2023-04-16T04:08:04.030Z,4.73
2023-04-16T04:09:04.034Z,4.73
2023-04-16T04:10:03.999Z,4.74
2023-04-16T04:11:03.966Z,4.74
2023-04-16T04:12:03.970Z,4.74
2023-04-16T04:13:03.947Z,4.74
2023-04-16T04:14:03.962Z,4.74
2023-04-16T04:15:03.925Z,4.74
2023-04-16T04:16:03.958Z,4.74
2023-04-16T04:17:03.909Z,4.75
2023-04-16T04:18:03.953Z,4.76
2023-04-16T04:19:03.892Z,4.76
2023-04-16T04:20:03.877Z,4.77
2023-04-16T04:21:03.886Z,4.77
2023-04-16T04:22:03.898Z,4.77
2023-04-16T04:23:03.858Z,4.78
2023-04-16T04:24:03.843Z,4.78
2023-04-16T04:25:03.836Z,4.77
2023-04-16T04:26:03.981Z,4.77
2023-04-16T04:27:03.824Z,4.78
2023-04-16T04:28:03.833Z,4.78
2023-04-16T04:29:03.860Z,4.78
2023-04-16T04:30:03.812Z,4.78
2023-04-16T04:31:03.782Z,4.78
2023-04-16T04:32:03.832Z,4.77
2023-04-16T04:33:03.829Z,4.77
2023-04-16T04:34:03.756Z,4.77
2023-04-16T04:35:03.820Z,4.77
2023-04-16T04:36:03.753Z,4.77
2023-04-16T04:37:03.773Z,4.77
2023-04-16T04:38:03.707Z,4.78
2023-04-16T04:39:03.755Z,4.78
2023-04-16T04:40:03.682Z,4.78
2023-04-16T04:41:03.794Z,4.78
2023-04-16T04:42:03.838Z,4.78
2023-04-16T04:43:03.649Z,4.78
2023-04-16T04:44:03.715Z,4.78
2023-04-16T04:45:03.656Z,4.79
2023-04-16T04:46:03.758Z,4.79
2023-04-16T04:47:03.605Z,4.80
2023-04-16T04:48:03.654Z,4.80
2023-04-16T04:49:03.593Z,4.79
2023-04-16T04:50:03.583Z,4.79
2023-04-16T04:51:05.027Z,4.79
2023-04-16T04:52:03.578Z,4.80
2023-04-16T04:53:03.555Z,4.80
2023-04-16T04:54:03.550Z,4.82
2023-04-16T04:55:03.540Z,4.84
2023-04-16T04:56:12.352Z,4.87
2023-04-16T04:57:03.573Z,4.88
2023-04-16T04:58:03.493Z,4.89
2023-04-16T04:59:03.489Z,4.90
2023-04-16T05:00:03.491Z,4.92
2023-04-16T05:01:03.587Z,4.93
2023-04-16T05:02:03.588Z,4.94
2023-04-16T05:03:03.555Z,4.95
2023-04-16T05:04:03.463Z,4.96
2023-04-16T05:05:03.490Z,4.97
2023-04-16T05:06:03.421Z,4.96
2023-04-16T05:07:03.429Z,4.96
2023-04-16T05:08:03.410Z,4.97
2023-04-16T05:09:03.394Z,4.97
2023-04-16T05:10:03.384Z,4.97
2023-04-16T05:11:03.387Z,4.98
2023-04-16T05:12:03.371Z,4.98
2023-04-16T05:13:03.375Z,4.99
2023-04-16T05:14:03.373Z,4.99
2023-04-16T05:15:03.349Z,5.00
2023-04-16T05:16:03.346Z,5.01
2023-04-16T05:17:03.490Z,5.02
2023-04-16T05:18:03.449Z,5.02
2023-04-16T05:19:03.322Z,5.01
2023-04-16T05:20:03.304Z,5.00
2023-04-16T05:21:03.303Z,5.00
2023-04-16T05:22:03.282Z,5.00
2023-04-16T05:23:03.279Z,5.00
2023-04-16T05:24:03.258Z,5.00
2023-04-16T05:25:03.289Z,4.98
2023-04-16T05:26:03.252Z,4.96
2023-04-16T05:27:03.227Z,4.95
2023-04-16T05:28:03.214Z,4.94
2023-04-16T05:29:03.227Z,4.92
2023-04-16T05:30:03.192Z,4.91
2023-04-16T05:31:03.292Z,4.91
2023-04-16T05:32:03.212Z,4.91
2023-04-16T05:33:03.170Z,4.91
2023-04-16T05:34:03.179Z,4.91
2023-04-16T05:35:03.161Z,4.92
2023-04-16T05:36:03.200Z,4.93
2023-04-16T05:37:03.151Z,4.93
2023-04-16T05:38:03.139Z,4.94
2023-04-16T05:39:03.108Z,4.94
2023-04-16T05:40:03.131Z,4.95
2023-04-16T05:41:03.079Z,4.95
2023-04-16T05:42:03.114Z,4.96
2023-04-16T05:43:03.070Z,4.97
2023-04-16T05:44:03.075Z,4.98
2023-04-16T05:45:03.050Z,4.99
2023-04-16T05:46:03.103Z,4.99
2023-04-16T05:47:03.028Z,4.99
2023-04-16T05:48:03.026Z,5.00
2023-04-16T05:49:02.990Z,5.00
2023-04-16T05:50:02.988Z,5.01
2023-04-16T05:51:02.995Z,5.02
2023-04-16T05:52:02.981Z,5.02
2023-04-16T05:53:02.971Z,5.03
2023-04-16T05:54:02.993Z,5.03
2023-04-16T05:55:02.953Z,5.03
2023-04-16T05:56:02.958Z,5.03
2023-04-16T05:57:02.926Z,5.04
2023-04-16T05:58:02.937Z,5.05
2023-04-16T05:59:02.949Z,5.05
2023-04-16T06:00:02.921Z,5.05
2023-04-16T06:01:02.884Z,5.06
2023-04-16T06:02:02.929Z,5.07
2023-04-16T06:03:03.101Z,5.07
2023-04-16T06:04:02.978Z,5.07
2023-04-16T06:05:02.861Z,5.06
2023-04-16T06:06:03.004Z,5.07
2023-04-16T06:07:02.823Z,5.07
2023-04-16T06:08:02.836Z,5.08
2023-04-16T06:09:02.813Z,5.08
2023-04-16T06:10:02.847Z,5.09
2023-04-16T06:11:02.827Z,5.10
2023-04-16T06:12:02.872Z,5.10
2023-04-16T06:13:02.773Z,5.11
2023-04-16T06:14:02.758Z,5.12
2023-04-16T06:15:02.749Z,5.13
2023-04-16T06:16:02.806Z,5.14
2023-04-16T06:17:02.739Z,5.15
2023-04-16T06:18:02.775Z,5.16
2023-04-16T06:19:02.724Z,5.17
2023-04-16T06:20:02.711Z,5.18
2023-04-16T06:21:02.734Z,5.19
2023-04-16T06:22:02.681Z,5.20
2023-04-16T06:23:02.672Z,5.20
2023-04-16T06:24:02.663Z,5.20
2023-04-16T06:25:02.657Z,5.20
2023-04-16T06:26:02.637Z,5.21
2023-04-16T06:27:02.647Z,5.22
2023-04-16T06:28:02.622Z,5.22
2023-04-16T06:29:02.610Z,5.23
2023-04-16T06:30:02.632Z,5.24
2023-04-16T06:31:02.607Z,5.25
2023-04-16T06:32:02.628Z,5.26
2023-04-16T06:33:02.660Z,5.26
2023-04-16T06:34:02.584Z,5.27
2023-04-16T06:35:02.554Z,5.27
2023-04-16T06:36:02.570Z,5.28
2023-04-16T06:37:02.532Z,5.29
2023-04-16T06:38:02.537Z,5.29
2023-04-16T06:39:02.527Z,5.30
2023-04-16T06:40:02.522Z,5.30
2023-04-16T06:41:02.499Z,5.31
2023-04-16T06:42:02.494Z,5.31
2023-04-16T06:43:02.481Z,5.31
2023-04-16T06:44:02.460Z,5.31
2023-04-16T06:45:02.482Z,5.31
2023-04-16T06:46:02.453Z,5.30
2023-04-16T06:47:02.541Z,5.30
2023-04-16T06:48:02.474Z,5.31
2023-04-16T06:49:02.423Z,5.31
2023-04-16T06:50:02.425Z,5.31
2023-04-16T06:51:02.401Z,5.31
2023-04-16T06:52:04.560Z,5.32
2023-04-16T06:53:02.381Z,5.34
2023-04-16T06:54:02.361Z,5.35
2023-04-16T06:55:02.377Z,5.36
2023-04-16T06:56:02.354Z,5.36
2023-04-16T06:57:02.345Z,5.37
2023-04-16T06:58:02.372Z,5.37
2023-04-16T06:59:02.310Z,5.38
2023-04-16T07:00:02.308Z,5.38
2023-04-16T07:01:02.302Z,5.39
2023-04-16T07:02:02.378Z,5.39
2023-04-16T07:03:02.575Z,5.38
2023-04-16T07:04:02.554Z,5.38
2023-04-16T07:05:02.309Z,5.39
2023-04-16T07:06:02.249Z,5.42
2023-04-16T07:07:02.273Z,5.44
2023-04-16T07:08:02.225Z,5.46
2023-04-16T07:09:02.238Z,5.48
2023-04-16T07:10:02.280Z,5.49
2023-04-16T07:11:02.295Z,5.52
2023-04-16T07:12:02.196Z,5.55
2023-04-16T07:13:02.264Z,5.59
2023-04-16T07:14:02.213Z,5.62
2023-04-16T07:15:02.228Z,5.63
2023-04-16T07:16:02.263Z,5.64
2023-04-16T07:17:02.212Z,5.67
2023-04-16T07:18:02.175Z,5.70
2023-04-16T07:19:02.193Z,5.74
2023-04-16T07:20:02.141Z,5.79
2023-04-16T07:21:02.112Z,5.80
2023-04-16T07:22:02.149Z,5.80
2023-04-16T07:23:02.156Z,5.82
2023-04-16T07:24:02.098Z,5.85
2023-04-16T07:25:02.175Z,5.86
2023-04-16T07:26:02.058Z,5.87
2023-04-16T07:27:02.046Z,5.88
2023-04-16T07:28:02.058Z,5.86
2023-04-16T07:29:02.052Z,5.85
2023-04-16T07:30:02.031Z,5.87
2023-04-16T07:31:02.004Z,5.88
2023-04-16T07:32:02.111Z,5.88
2023-04-16T07:33:02.065Z,5.90
2023-04-16T07:34:01.983Z,5.95
2023-04-16T07:35:01.949Z,6.01
2023-04-16T07:36:01.971Z,6.06
2023-04-16T07:37:02.014Z,6.12
2023-04-16T07:38:02.015Z,6.15
2023-04-16T07:39:01.949Z,6.14
2023-04-16T07:40:01.903Z,6.11
2023-04-16T07:41:01.952Z,6.11
2023-04-16T07:42:01.926Z,6.12
2023-04-16T07:43:01.895Z,6.13
2023-04-16T07:44:01.886Z,6.13
2023-04-16T07:45:01.856Z,6.11
2023-04-16T07:46:01.936Z,6.11
2023-04-16T07:47:03.482Z,6.10
2023-04-16T07:48:01.870Z,6.11
2023-04-16T07:49:01.823Z,6.11
2023-04-16T07:50:01.830Z,6.10
2023-04-16T07:51:01.832Z,6.10
2023-04-16T07:52:01.819Z,6.10
2023-04-16T07:53:01.792Z,6.11
2023-04-16T07:54:01.778Z,6.13
2023-04-16T07:55:01.817Z,6.12
2023-04-16T07:56:01.765Z,6.09
2023-04-16T07:57:01.759Z,6.08
2023-04-16T07:58:01.766Z,6.08
2023-04-16T07:59:14.372Z,6.09
2023-04-16T08:00:02.532Z,6.12
2023-04-16T08:01:01.739Z,6.14
2023-04-16T08:02:01.789Z,6.16
2023-04-16T08:03:01.830Z,6.17
2023-04-16T08:04:01.836Z,6.16
2023-04-16T08:05:01.691Z,6.18
2023-04-16T08:06:01.687Z,6.20
2023-04-16T08:07:01.667Z,6.23
2023-04-16T08:08:01.632Z,6.26
2023-04-16T08:09:01.633Z,6.25
2023-04-16T08:10:01.649Z,6.23
2023-04-16T08:11:01.626Z,6.22
2023-04-16T08:12:01.813Z,6.22
2023-04-16T08:13:01.585Z,6.21
2023-04-16T08:14:01.657Z,6.20
2023-04-16T08:15:01.581Z,6.21
2023-04-16T08:16:01.591Z,6.22
2023-04-16T08:17:01.823Z,6.25
2023-04-16T08:18:01.550Z,6.25
2023-04-16T08:19:01.625Z,6.25
2023-04-16T08:20:01.540Z,6.23
2023-04-16T08:21:01.593Z,6.20
2023-04-16T08:22:01.505Z,6.17
2023-04-16T08:23:01.599Z,6.16
2023-04-16T08:24:01.538Z,6.19
2023-04-16T08:25:01.498Z,6.22
2023-04-16T08:26:01.478Z,6.22
2023-04-16T08:27:11.535Z,6.20
2023-04-16T08:28:01.459Z,6.21
2023-04-16T08:29:01.508Z,6.21
2023-04-16T08:30:01.403Z,6.20
2023-04-16T08:31:01.445Z,6.22
2023-04-16T08:32:01.415Z,6.23
2023-04-16T08:33:01.494Z,6.22
2023-04-16T08:34:01.371Z,6.21
2023-04-16T08:35:01.402Z,6.20
2023-04-16T08:36:01.382Z,6.21
2023-04-16T08:37:01.350Z,6.24
2023-04-16T08:38:02.508Z,6.26
2023-04-16T08:39:01.352Z,6.24
2023-04-16T08:40:01.637Z,6.23
2023-04-16T08:41:01.473Z,6.22
2023-04-16T08:42:01.760Z,6.18
2023-04-16T08:43:01.314Z,6.15
2023-04-16T08:44:01.559Z,6.14
2023-04-16T08:45:01.440Z,6.12
2023-04-16T08:46:01.277Z,6.11
2023-04-16T08:47:01.441Z,6.10
2023-04-16T08:48:01.393Z,6.11
2023-04-16T08:49:01.274Z,6.12
2023-04-16T08:50:01.246Z,6.12
2023-04-16T08:51:01.260Z,6.16
2023-04-16T08:52:01.226Z,6.22
2023-04-16T08:53:01.205Z,6.27
2023-04-16T08:54:01.305Z,6.29
2023-04-16T08:55:01.248Z,6.29
2023-04-16T08:56:01.190Z,6.27
2023-04-16T08:57:01.230Z,6.25
2023-04-16T08:58:01.214Z,6.24
2023-04-16T08:59:02.160Z,6.26
2023-04-16T09:00:01.174Z,6.27
2023-04-16T09:01:01.174Z,6.25
2023-04-16T09:02:01.260Z,6.22
2023-04-16T09:03:01.310Z,6.21
2023-04-16T09:04:01.408Z,6.21
2023-04-16T09:05:01.181Z,6.23
2023-04-16T09:06:01.151Z,6.23
2023-04-16T09:07:03.365Z,6.24
2023-04-16T09:08:01.118Z,6.24
2023-04-16T09:09:01.186Z,6.23
2023-04-16T09:10:01.097Z,6.21
2023-04-16T09:11:01.126Z,6.21
2023-04-16T09:12:01.113Z,6.23
2023-04-16T09:13:01.070Z,6.25
2023-04-16T09:14:01.051Z,6.27
2023-04-16T09:15:01.083Z,6.28
2023-04-16T09:16:01.411Z,6.30
2023-04-16T09:17:01.202Z,6.29
2023-04-16T09:18:01.108Z,6.26
2023-04-16T09:19:01.016Z,6.25
2023-04-16T09:20:00.977Z,6.24
2023-04-16T09:21:00.938Z,6.27
2023-04-16T09:22:00.950Z,6.32
2023-04-16T09:23:00.966Z,6.35
2023-04-16T09:24:00.958Z,6.38
2023-04-16T09:25:00.955Z,6.44
2023-04-16T09:26:01.006Z,6.48
2023-04-16T09:27:00.897Z,6.48
2023-04-16T09:28:01.549Z,6.49
2023-04-16T09:29:00.877Z,6.52
2023-04-16T09:30:00.912Z,6.55
2023-04-16T09:31:00.868Z,6.58
2023-04-16T09:32:00.909Z,6.62
2023-04-16T09:33:00.916Z,6.66
2023-04-16T09:34:00.820Z,6.66
2023-04-16T09:35:00.928Z,6.64
2023-04-16T09:36:00.823Z,6.59
2023-04-16T09:37:00.858Z,6.52
2023-04-16T09:38:01.057Z,6.48
2023-04-16T09:39:00.843Z,6.48
2023-04-16T09:40:01.041Z,6.49
2023-04-16T09:41:00.964Z,6.51
2023-04-16T09:42:01.692Z,6.54
2023-04-16T09:43:00.924Z,6.59
2023-04-16T09:44:00.757Z,6.65
2023-04-16T09:45:02.640Z,6.69
2023-04-16T09:46:00.756Z,6.71
2023-04-16T09:47:00.689Z,6.70
2023-04-16T09:48:00.758Z,6.69
2023-04-16T09:49:00.730Z,6.72
2023-04-16T09:50:00.618Z,6.75
2023-04-16T09:51:00.639Z,6.77
2023-04-16T09:52:00.610Z,6.80
2023-04-16T09:53:00.603Z,6.81
2023-04-16T09:54:00.609Z,6.82
2023-04-16T09:55:00.583Z,6.81
2023-04-16T09:56:00.586Z,6.78
2023-04-16T09:57:00.560Z,6.77
2023-04-16T09:58:00.573Z,6.76
2023-04-16T09:59:00.535Z,6.72
2023-04-16T10:00:00.545Z,6.65
2023-04-16T10:01:00.544Z,6.60
2023-04-16T10:02:14.544Z,6.57
2023-04-16T10:03:00.597Z,6.55
2023-04-16T10:04:00.545Z,6.56
2023-04-16T10:05:00.507Z,6.59
2023-04-16T10:06:00.574Z,6.61
2023-04-16T10:07:00.453Z,6.59
2023-04-16T10:08:00.472Z,6.52
2023-04-16T10:09:00.454Z,6.46
2023-04-16T10:10:00.425Z,6.45
2023-04-16T10:11:00.419Z,6.45
2023-04-16T10:12:00.402Z,6.43
2023-04-16T10:13:00.406Z,6.42
2023-04-16T10:14:00.411Z,6.40
2023-04-16T10:15:00.400Z,6.41
2023-04-16T10:16:00.438Z,6.44
2023-04-16T10:17:00.472Z,6.48
2023-04-16T10:18:00.432Z,6.49
2023-04-16T10:19:00.649Z,6.49
2023-04-16T10:20:00.360Z,6.50
2023-04-16T10:21:00.363Z,6.52
2023-04-16T10:22:00.316Z,6.53
2023-04-16T10:23:00.351Z,6.59
2023-04-16T10:24:00.345Z,6.67
2023-04-16T10:25:00.381Z,6.70
2023-04-16T10:26:00.356Z,6.66
2023-04-16T10:27:00.340Z,6.62
2023-04-16T10:28:00.250Z,6.60
2023-04-16T10:29:00.237Z,6.60
2023-04-16T10:30:07.384Z,6.62
2023-04-16T10:31:00.431Z,6.68
2023-04-16T10:32:00.642Z,6.77
2023-04-16T10:33:00.779Z,6.84
2023-04-16T10:34:00.340Z,6.89
2023-04-16T10:35:00.186Z,6.90
2023-04-16T10:36:07.545Z,6.87
2023-04-16T10:37:00.239Z,6.82
2023-04-16T10:38:00.216Z,6.75
2023-04-16T10:39:00.143Z,6.70
2023-04-16T10:40:00.271Z,6.69
2023-04-16T10:41:00.158Z,6.68
2023-04-16T10:42:00.133Z,6.72
2023-04-16T10:43:00.332Z,6.79
2023-04-16T10:44:00.176Z,6.83
2023-04-16T10:45:00.110Z,6.86
2023-04-16T10:46:00.111Z,6.86
2023-04-16T10:47:00.138Z,6.84
2023-04-16T10:48:00.085Z,6.79
2023-04-16T10:49:00.128Z,6.76
2023-04-16T10:50:00.161Z,6.77
2023-04-16T10:51:00.100Z,6.80
2023-04-16T10:52:00.009Z,6.86
2023-04-16T10:53:00.031Z,6.93
2023-04-16T10:54:00.049Z,6.98
2023-04-16T10:55:00.080Z,7.01
2023-04-16T10:56:00.037Z,7.03
2023-04-16T10:57:01.664Z,7.03
2023-04-16T10:57:59.968Z,7.04
2023-04-16T10:58:59.967Z,7.09
2023-04-16T11:00:00.728Z,7.19
2023-04-16T11:00:59.938Z,7.23
2023-04-16T11:02:00.057Z,7.14
2023-04-16T11:03:00.021Z,7.03
2023-04-16T11:04:00.114Z,6.98
2023-04-16T11:05:00.003Z,6.96
2023-04-16T11:05:59.949Z,6.95
2023-04-16T11:06:59.918Z,6.98
2023-04-16T11:07:59.930Z,7.02
2023-04-16T11:08:59.886Z,7.05
2023-04-16T11:10:00.210Z,7.03
2023-04-16T11:10:59.864Z,6.99
2023-04-16T11:11:59.825Z,6.96
2023-04-16T11:12:59.890Z,6.91
2023-04-16T11:13:59.872Z,6.86
2023-04-16T11:15:00.137Z,6.81
2023-04-16T11:15:59.840Z,6.79
2023-04-16T11:16:59.814Z,6.79
2023-04-16T11:17:59.825Z,6.78
2023-04-16T11:18:59.774Z,6.75
2023-04-16T11:19:59.726Z,6.72
2023-04-16T11:20:59.793Z,6.71
2023-04-16T11:21:59.714Z,6.68
2023-04-16T11:22:59.712Z,6.61
2023-04-16T11:23:59.675Z,6.52
2023-04-16T11:24:59.723Z,6.45
2023-04-16T11:25:59.696Z,6.39
2023-04-16T11:26:59.667Z,6.36
2023-04-16T11:27:59.638Z,6.34
2023-04-16T11:28:59.646Z,6.35
2023-04-16T11:29:59.631Z,6.36
2023-04-16T11:30:59.730Z,6.35
2023-04-16T11:31:59.611Z,6.34
2023-04-16T11:32:59.679Z,6.32
2023-04-16T11:33:59.656Z,6.28
2023-04-16T11:34:59.588Z,6.25
2023-04-16T11:35:59.632Z,6.25
2023-04-16T11:36:59.580Z,6.27
2023-04-16T11:38:00.419Z,6.31
2023-04-16T11:38:59.629Z,6.36
2023-04-16T11:39:59.525Z,6.41
2023-04-16T11:40:59.539Z,6.42
2023-04-16T11:41:59.526Z,6.42
2023-04-16T11:42:59.885Z,6.41
2023-04-16T11:43:59.561Z,6.33
2023-04-16T11:44:59.565Z,6.27
2023-04-16T11:45:59.511Z,6.26
2023-04-16T11:46:59.512Z,6.26
2023-04-16T11:47:59.482Z,6.27
2023-04-16T11:48:59.485Z,6.29
2023-04-16T11:49:59.444Z,6.30
2023-04-16T11:50:59.476Z,6.29
2023-04-16T11:51:59.502Z,6.25
2023-04-16T11:52:59.457Z,6.20
2023-04-16T11:53:59.427Z,6.17
2023-04-16T11:54:59.398Z,6.16
2023-04-16T11:55:59.581Z,6.13
2023-04-16T11:56:59.687Z,6.09
2023-04-16T11:57:59.409Z,6.06
2023-04-16T11:58:59.328Z,6.06
2023-04-16T12:00:01.474Z,6.03
2023-04-16T12:00:59.328Z,6.00
2023-04-16T12:01:59.396Z,5.97
2023-04-16T12:02:59.530Z,5.95
2023-04-16T12:03:59.614Z,5.95
2023-04-16T12:04:59.300Z,5.96
2023-04-16T12:05:59.287Z,5.96
2023-04-16T12:06:59.338Z,5.94
2023-04-16T12:07:59.280Z,5.94
2023-04-16T12:08:59.260Z,5.95
2023-04-16T12:09:59.259Z,5.98
2023-04-16T12:10:59.266Z,6.04
2023-04-16T12:11:59.260Z,6.07
2023-04-16T12:12:59.341Z,6.06
2023-04-16T12:13:59.297Z,6.06
2023-04-16T12:14:59.208Z,6.07
2023-04-16T12:15:59.238Z,6.07
2023-04-16T12:16:59.261Z,6.09
2023-04-16T12:17:59.229Z,6.13
2023-04-16T12:18:59.356Z,6.20
2023-04-16T12:19:59.179Z,6.27
2023-04-16T12:20:59.225Z,6.29
2023-04-16T12:21:59.182Z,6.29
2023-04-16T12:22:59.251Z,6.30
2023-04-16T12:23:59.093Z,6.31
2023-04-16T12:24:59.121Z,6.30
2023-04-16T12:25:59.110Z,6.26
2023-04-16T12:26:59.087Z,6.22
2023-04-16T12:27:59.160Z,6.15
2023-04-16T12:28:59.047Z,6.09
2023-04-16T12:29:59.213Z,6.04
2023-04-16T12:30:59.056Z,6.00
2023-04-16T12:31:59.077Z,6.01
2023-04-16T12:32:59.227Z,6.04
2023-04-16T12:33:59.178Z,6.05
2023-04-16T12:34:59.084Z,6.05
2023-04-16T12:35:59.051Z,6.06
2023-04-16T12:36:59.073Z,6.04
2023-04-16T12:37:59.039Z,6.02
2023-04-16T12:38:59.043Z,6.02
2023-04-16T12:39:59.044Z,6.05
2023-04-16T12:40:58.968Z,6.08
2023-04-16T12:41:59.051Z,6.10
2023-04-16T12:42:58.960Z,6.14
2023-04-16T12:43:58.935Z,6.21
2023-04-16T12:44:58.949Z,6.26
2023-04-16T12:45:59.061Z,6.28
2023-04-16T12:46:58.883Z,6.26
2023-04-16T12:47:59.063Z,6.25
2023-04-16T12:48:59.096Z,6.25
2023-04-16T12:49:59.014Z,6.25
2023-04-16T12:50:59.209Z,6.25
2023-04-16T12:51:58.911Z,6.25
2023-04-16T12:52:58.907Z,6.25
2023-04-16T12:53:59.044Z,6.28
2023-04-16T12:54:58.909Z,6.29
2023-04-16T12:55:58.930Z,6.28
2023-04-16T12:56:58.893Z,6.29
2023-04-16T12:57:58.808Z,6.30
2023-04-16T12:58:58.821Z,6.32
2023-04-16T12:59:58.763Z,6.33
2023-04-16T13:00:58.783Z,6.36
2023-04-16T13:01:59.722Z,6.38
2023-04-16T13:04:10.637Z,7.61
2023-04-16T13:05:11.354Z,7.13
2023-04-16T13:06:11.342Z,6.82
2023-04-16T13:07:11.327Z,6.65
2023-04-16T13:08:11.307Z,6.57
2023-04-16T13:09:11.512Z,6.53
2023-04-16T13:10:11.477Z,6.51
2023-04-16T13:11:11.433Z,6.50
2023-04-16T13:12:11.304Z,6.51
2023-04-16T13:13:11.252Z,6.52
2023-04-16T13:14:11.298Z,6.48
2023-04-16T13:15:11.301Z,6.44
2023-04-16T13:16:11.398Z,6.44
2023-04-16T13:17:11.305Z,6.47
2023-04-16T13:18:11.262Z,6.48
2023-04-16T13:19:11.479Z,6.48
2023-04-16T13:20:11.267Z,6.50
2023-04-16T13:21:11.237Z,6.54